Time;durP1;ratioP1;P1;durP2;ratioP2;P2;SDS_P1;SDS_P2;PMS_P1;PMS_P2;Temp;Humidity;BMP_temperature;BMP_pressure;BME280_temperature;BME280_humidity;BME280_pressure;Samples;Min_cycle;Max_cycle;Signal;HPM_P1;HPM_P2
2022/06/24 00:00:16;;;;;;;4.50;1.60;;;;;;;20.32;47.09;100753.06;2096636;28;20398;-69
2022/06/24 00:01:19;;;;;;;5.15;1.42;;;;;;;20.31;47.41;100754.03;2096436;28;22685;-68
2022/06/24 00:02:21;;;;;;;2.92;1.80;;;;;;;20.27;47.30;100757.94;2098705;28;20044;-69
2022/06/24 00:03:30;;;;;;;4.57;1.80;;;;;;;20.24;47.71;100753.56;2096845;28;20033;-69
2022/06/24 00:04:32;;;;;;;5.40;2.58;;;;;;;20.24;48.37;100752.69;2089656;28;22343;-69
2022/06/24 00:05:34;;;;;;;4.05;2.20;;;;;;;20.24;48.20;100748.13;2096438;28;22810;-69
2022/06/24 00:06:47;;;;;;;3.35;2.05;;;;;;;20.18;47.94;100740.38;2095789;28;20623;-69
2022/06/24 00:07:52;;;;;;;4.00;2.17;;;;;;;20.16;48.06;100745.06;2093305;28;20041;-70
2022/06/24 00:08:59;;;;;;;5.25;2.13;;;;;;;20.16;48.60;100745.06;2097213;28;24316;-70
2022/06/24 00:10:01;;;;;;;7.07;2.50;;;;;;;20.14;48.61;100739.72;2096108;28;35687;-71
2022/06/24 00:11:14;;;;;;;3.83;2.38;;;;;;;20.13;49.20;100739.81;2087915;28;35323;-70
2022/06/24 00:12:23;;;;;;;5.22;2.45;;;;;;;20.07;48.39;100734.78;2097264;28;21173;-70
2022/06/24 00:13:38;;;;;;;4.85;2.30;;;;;;;20.05;48.64;100742.19;2096986;28;25209;-70
2022/06/24 00:14:45;;;;;;;5.78;2.33;;;;;;;20.00;48.83;100737.03;2091698;28;20982;-70
2022/06/24 00:15:50;;;;;;;6.35;2.92;;;;;;;19.99;49.72;100738.88;2097078;28;20170;-70
2022/06/24 00:17:01;;;;;;;6.90;2.90;;;;;;;19.99;49.93;100738.00;2096258;28;24528;-71
2022/06/24 00:18:19;;;;;;;7.80;3.40;;;;;;;19.96;49.69;100728.22;2096561;28;29785;-70
2022/06/24 00:19:23;;;;;;;9.82;3.10;;;;;;;19.94;49.89;100730.16;2096830;28;26688;-71
2022/06/24 00:20:25;;;;;;;7.68;3.08;;;;;;;19.93;49.90;100725.69;2095676;28;37123;-71
2022/06/24 00:21:29;;;;;;;5.38;3.30;;;;;;;19.91;49.98;100729.50;2096501;28;30110;-72
2022/06/24 00:22:45;;;;;;;7.78;3.17;;;;;;;19.84;49.70;100723.56;2096304;28;20033;-71
2022/06/24 00:23:47;;;;;;;9.32;3.35;;;;;;;19.86;50.30;100720.75;2096948;28;23963;-71
2022/06/24 00:24:49;;;;;;;7.15;3.20;;;;;;;19.82;50.00;100726.38;2097208;28;20090;-70
2022/06/24 00:25:55;;;;;;;9.32;3.30;;;;;;;19.83;50.51;100724.56;2097005;28;28124;-70
2022/06/24 00:27:01;;;;;;;8.32;3.50;;;;;;;19.79;50.13;100721.19;2096290;28;20930;-71
2022/06/24 00:28:08;;;;;;;9.15;2.97;;;;;;;19.80;49.66;100722.91;2097341;28;20045;-73
2022/06/24 00:29:15;;;;;;;12.27;3.95;;;;;;;19.81;49.73;100719.22;2097537;28;20867;-70
2022/06/24 00:30:17;;;;;;;11.23;3.70;;;;;;;19.79;50.06;100718.47;2097355;28;20041;-70
2022/06/24 00:31:19;;;;;;;8.85;3.55;;;;;;;19.78;49.88;100719.41;2096542;28;26302;-70
2022/06/24 00:32:33;;;;;;;8.02;3.47;;;;;;;19.75;50.15;100711.47;2097939;28;20045;-69
2022/06/24 00:33:36;;;;;;;12.00;3.42;;;;;;;19.76;49.65;100720.50;2097784;28;36658;-69
2022/06/24 00:34:41;;;;;;;6.07;3.58;;;;;;;19.79;50.20;100709.41;2097466;28;20786;-71
2022/06/24 00:35:53;;;;;;;6.65;3.05;;;;;;;19.79;49.80;100709.41;2096290;28;23559;-71
2022/06/24 00:36:57;;;;;;;10.65;2.88;;;;;;;19.76;50.25;100702.34;2097696;28;20161;-71
2022/06/24 00:37:59;;;;;;;7.80;3.33;;;;;;;19.73;50.20;100705.25;2097123;28;31232;-70
2022/06/24 00:39:02;;;;;;;6.90;3.10;;;;;;;19.72;50.22;100708.94;2097146;28;20908;-71
2022/06/24 00:40:09;;;;;;;5.15;3.17;;;;;;;19.71;50.55;100709.91;2096614;28;20665;-71
2022/06/24 00:41:13;;;;;;;7.85;3.40;;;;;;;19.72;50.57;100708.03;2096410;28;20041;-72
2022/06/24 00:42:18;;;;;;;9.07;3.03;;;;;;;19.65;50.65;100711.16;2096849;28;23419;-70
2022/06/24 00:43:45;;;;;;;7.10;3.00;;;;;;;19.62;50.80;100702.34;2097314;28;21642;-70
2022/06/24 00:45:02;;;;;;;8.90;3.00;;;;;;;19.55;50.85;100703.72;2097551;28;20090;-71
2022/06/24 00:46:15;;;;;;;6.85;2.83;;;;;;;19.54;51.08;100702.84;2097207;28;22494;-70
2022/06/24 00:47:18;;;;;;;8.98;2.78;;;;;;;19.51;50.88;100704.88;2097016;28;39148;-71
2022/06/24 00:48:23;;;;;;;6.55;2.95;;;;;;;19.55;51.09;100704.56;2096488;28;20111;-71
2022/06/24 00:49:27;;;;;;;5.93;2.83;;;;;;;19.51;51.53;100700.31;2096847;28;20053;-69
2022/06/24 00:50:38;;;;;;;7.18;3.17;;;;;;;19.46;51.35;100697.88;2096176;28;20041;-71
2022/06/24 00:51:45;;;;;;;7.05;3.20;;;;;;;19.44;51.12;100702.53;2096898;28;20045;-70
2022/06/24 00:52:48;;;;;;;6.25;2.97;;;;;;;19.44;51.27;100696.25;2096683;28;29481;-70
2022/06/24 00:53:55;;;;;;;5.13;2.97;;;;;;;19.44;51.37;100696.25;2096850;28;31073;-70
2022/06/24 00:54:57;;;;;;;7.28;3.53;;;;;;;19.41;51.51;100699.16;2097471;28;25415;-70
2022/06/24 00:55:59;;;;;;;9.20;3.30;;;;;;;19.37;51.39;100701.19;2096026;28;27282;-70
2022/06/24 00:57:03;;;;;;;5.68;2.92;;;;;;;19.41;51.65;100699.16;2088764;28;20037;-70
2022/06/24 00:58:13;;;;;;;5.78;3.35;;;;;;;19.38;51.78;100694.81;2095238;28;34427;-70
2022/06/24 00:59:15;;;;;;;8.70;3.22;;;;;;;19.40;51.94;100700.16;2096770;28;21557;-70
2022/06/24 01:00:18;;;;;;;7.07;3.40;;;;;;;19.36;52.35;100691.31;2089671;28;20581;-71
2022/06/24 01:01:43;;;;;;;7.22;3.08;;;;;;;19.36;51.90;100688.59;2096851;28;20037;-70
2022/06/24 01:02:47;;;;;;;5.43;2.92;;;;;;;19.34;51.85;100687.81;2096565;28;33161;-70
2022/06/24 01:03:49;;;;;;;7.40;3.30;;;;;;;19.36;51.97;100695.84;2089690;28;26343;-70
2022/06/24 01:04:51;;;;;;;6.65;3.00;;;;;;;19.32;51.88;100689.75;2096281;28;20114;-69
2022/06/24 01:05:58;;;;;;;7.05;2.83;;;;;;;19.29;51.98;100683.66;2097252;28;21047;-71
2022/06/24 01:07:01;;;;;;;4.28;2.70;;;;;;;19.25;52.29;100677.53;2096691;28;27506;-71
2022/06/24 01:08:09;;;;;;;6.43;3.20;;;;;;;19.25;52.51;100682.97;2096253;28;28527;-70
2022/06/24 01:09:12;;;;;;;6.20;2.70;;;;;;;19.22;52.38;100678.63;2086856;28;20717;-71
2022/06/24 01:10:13;;;;;;;6.13;2.85;;;;;;;19.24;52.52;100681.25;2088745;28;21669;-71
2022/06/24 01:11:40;;;;;;;8.05;2.97;;;;;;;19.19;52.69;100686.94;2096229;28;20081;-70
2022/06/24 01:12:42;;;;;;;9.35;3.00;;;;;;;19.18;52.67;100681.63;2097388;28;20041;-72
2022/06/24 01:13:47;;;;;;;5.03;3.00;;;;;;;19.18;52.62;100670.75;2096798;28;29034;-73
2022/06/24 01:14:51;;;;;;;5.10;2.80;;;;;;;19.18;52.72;100670.75;2096494;28;20037;-71
2022/06/24 01:15:54;;;;;;;5.53;2.85;;;;;;;19.17;52.87;100669.03;2097057;28;22563;-70
2022/06/24 01:16:56;;;;;;;4.43;2.80;;;;;;;19.14;53.04;100674.63;2096200;28;34124;-73
2022/06/24 01:17:58;;;;;;;6.60;3.45;;;;;;;19.14;52.76;100672.78;2096334;28;27652;-71
2022/06/24 01:19:03;;;;;;;4.22;2.55;;;;;;;19.13;53.07;100668.34;2095841;28;29859;-72
2022/06/24 01:20:10;;;;;;;7.70;2.83;;;;;;;19.12;53.09;100671.16;2096781;28;20446;-71
2022/06/24 01:21:41;;;;;;;5.63;2.78;;;;;;;19.08;53.22;100670.47;2097571;28;23832;-71
2022/06/24 01:22:43;;;;;;;6.90;2.80;;;;;;;19.08;53.16;100665.91;2096689;28;20083;-71
2022/06/24 01:23:45;;;;;;;5.80;2.63;;;;;;;19.05;53.10;100678.81;2087637;28;29824;-70
2022/06/24 01:24:47;;;;;;;6.45;2.97;;;;;;;19.03;53.26;100662.63;2087774;28;37866;-69
2022/06/24 01:25:49;;;;;;;4.90;2.58;;;;;;;19.03;53.51;100667.19;2097010;28;25721;-70
2022/06/24 01:26:57;;;;;;;8.35;2.85;;;;;;;19.00;53.64;100670.94;2096709;28;22616;-70
2022/06/24 01:27:59;;;;;;;6.95;3.03;;;;;;;19.02;53.36;100668.13;2096759;28;27553;-74
2022/06/24 01:29:01;;;;;;;6.05;3.30;;;;;;;19.08;52.96;100665.06;2087582;28;24045;-70
2022/06/24 01:30:04;;;;;;;5.32;2.85;;;;;;;19.03;53.40;100661.75;2087513;28;39769;-70
2022/06/24 01:31:06;;;;;;;4.78;2.75;;;;;;;19.03;53.38;100662.63;2087816;28;24151;-70
2022/06/24 01:32:13;;;;;;;4.47;2.60;;;;;;;18.99;53.38;100668.34;2087822;28;26110;-70
2022/06/24 01:33:15;;;;;;;6.63;2.90;;;;;;;19.01;53.58;100664.56;2088591;28;24771;-70
2022/06/24 01:34:19;;;;;;;6.00;2.95;;;;;;;18.96;53.45;100650.41;2087906;28;20119;-70
2022/06/24 01:35:20;;;;;;;6.68;2.90;;;;;;;18.98;53.44;100656.59;2089780;28;29940;-70
2022/06/24 01:36:23;;;;;;;3.80;2.70;;;;;;;18.94;53.91;100657.75;2096567;28;20115;-70
2022/06/24 01:37:25;;;;;;;6.95;3.03;;;;;;;18.92;53.72;100654.28;2096850;28;23712;-70
2022/06/24 01:38:29;;;;;;;6.70;3.08;;;;;;;18.91;54.06;100652.53;2095546;28;35814;-70
2022/06/24 01:39:31;;;;;;;5.85;2.92;;;;;;;18.88;54.23;100655.44;2095538;28;38372;-69
2022/06/24 01:40:33;;;;;;;5.40;2.90;;;;;;;18.87;54.12;100657.28;2096047;28;27230;-70
2022/06/24 01:41:35;;;;;;;6.68;3.03;;;;;;;18.87;54.19;100653.69;2096058;28;37807;-70
2022/06/24 01:42:37;;;;;;;5.22;3.40;;;;;;;18.86;54.46;100654.66;2097051;28;20942;-70
2022/06/24 01:43:39;;;;;;;9.25;3.35;;;;;;;18.81;54.85;100656.78;2096107;28;29299;-71
2022/06/24 01:44:41;;;;;;;6.45;3.20;;;;;;;18.78;54.65;100655.09;2095834;28;26418;-70
2022/06/24 01:45:45;;;;;;;6.50;3.50;;;;;;;18.75;54.91;100651.69;2097121;28;20869;-69
2022/06/24 01:46:47;;;;;;;6.75;3.03;;;;;;;18.77;54.95;100649.75;2096514;28;23205;-69
2022/06/24 01:47:51;;;;;;;6.35;3.13;;;;;;;18.72;55.27;100649.16;2096400;28;25509;-70
2022/06/24 01:48:53;;;;;;;7.38;3.33;;;;;;;18.70;55.02;100644.72;2095935;28;30831;-69
2022/06/24 01:49:55;;;;;;;5.10;3.00;;;;;;;18.67;54.96;100642.19;2096910;28;27323;-69
2022/06/24 01:50:57;;;;;;;5.65;2.92;;;;;;;18.65;55.40;100636.00;2097302;28;22269;-70
2022/06/24 01:52:01;;;;;;;7.13;3.22;;;;;;;18.64;55.25;100645.09;2097688;28;23185;-69
2022/06/24 01:53:03;;;;;;;6.68;3.20;;;;;;;18.62;55.29;100638.91;2096819;28;21064;-69
2022/06/24 01:54:05;;;;;;;9.18;3.22;;;;;;;18.63;55.34;100637.94;2096435;28;37108;-69
2022/06/24 01:55:07;;;;;;;6.18;2.90;;;;;;;18.59;55.19;100633.69;2096165;28;38851;-69
2022/06/24 01:56:09;;;;;;;7.00;3.33;;;;;;;18.56;55.36;100630.28;2096547;28;26305;-69
2022/06/24 01:57:11;;;;;;;5.90;3.10;;;;;;;18.51;55.66;100634.13;2096053;28;29040;-69
2022/06/24 01:58:12;;;;;;;6.18;3.20;;;;;;;18.49;55.99;100632.50;2096994;28;26824;-69
2022/06/24 01:59:15;;;;;;;7.80;3.33;;;;;;;18.47;55.46;100629.88;2096401;28;28531;-70
2022/06/24 02:00:19;;;;;;;6.47;3.00;;;;;;;18.49;56.15;100627.06;2095667;28;34243;-69
2022/06/24 02:01:23;;;;;;;5.93;3.10;;;;;;;18.45;55.84;100622.81;2095857;28;20049;-69
2022/06/24 02:02:25;;;;;;;7.13;3.40;;;;;;;18.46;56.00;100624.53;2096646;28;26218;-69
2022/06/24 02:03:34;;;;;;;6.80;3.22;;;;;;;18.44;55.85;100623.75;2097086;28;20114;-69
2022/06/24 02:04:35;;;;;;;3.67;2.92;;;;;;;18.41;56.36;100622.13;2096413;28;20981;-69
2022/06/24 02:05:39;;;;;;;4.55;2.83;;;;;;;18.36;56.21;100610.69;2095722;28;29003;-69
2022/06/24 02:06:40;;;;;;;8.05;3.17;;;;;;;18.36;56.35;100620.63;2088057;28;21126;-69
2022/06/24 02:07:45;;;;;;;6.53;3.08;;;;;;;18.36;56.33;100624.25;2087556;28;38907;-69
2022/06/24 02:08:47;;;;;;;5.72;3.10;;;;;;;18.33;56.31;100618.13;2096648;28;22614;-69
2022/06/24 02:13:51;;;;;;;8.45;3.17;;;;;;;18.25;56.94;100614.03;2093059;28;22659;-69
2022/06/24 02:14:53;;;;;;;5.50;3.20;;;;;;;18.23;56.79;100615.09;2096497;28;22071;-69
2022/06/24 02:16:03;;;;;;;6.00;3.20;;;;;;;18.22;57.01;100614.22;2096135;28;20754;-69
2022/06/24 02:17:05;;;;;;;4.25;2.95;;;;;;;18.19;56.89;100619.81;2096083;28;23889;-69
2022/06/24 02:18:07;;;;;;;5.78;2.95;;;;;;;18.20;57.01;100612.59;2096637;28;22941;-69
2022/06/24 02:19:09;;;;;;;6.65;3.13;;;;;;;18.19;57.56;100614.41;2096154;28;22795;-69
2022/06/24 02:20:11;;;;;;;8.50;3.53;;;;;;;18.18;57.14;100600.94;2095197;28;24671;-69
2022/06/24 02:21:15;;;;;;;7.45;3.17;;;;;;;18.14;57.56;100613.78;2095621;28;36613;-70
2022/06/24 02:22:16;;;;;;;3.33;2.70;;;;;;;18.12;57.22;100599.47;2087468;28;39255;-69
2022/06/24 02:23:19;;;;;;;5.78;2.90;;;;;;;18.13;57.41;100607.50;2095872;28;35527;-69
2022/06/24 02:24:21;;;;;;;3.72;2.85;;;;;;;18.11;57.65;100603.16;2096841;28;20037;-69
2022/06/24 02:25:23;;;;;;;6.40;3.10;;;;;;;18.09;57.62;100596.97;2096633;28;20179;-69
2022/06/24 02:26:26;;;;;;;5.10;3.10;;;;;;;18.08;57.63;100598.78;2096536;28;25921;-69
2022/06/24 02:27:28;;;;;;;5.80;2.90;;;;;;;18.07;58.17;100596.16;2096294;28;20040;-69
2022/06/24 02:28:30;;;;;;;4.47;3.05;;;;;;;18.05;57.63;100588.16;2095470;28;27491;-69
2022/06/24 02:29:32;;;;;;;6.68;2.60;;;;;;;18.06;57.44;100599.84;2096360;28;20040;-69
2022/06/24 02:30:34;;;;;;;5.35;2.80;;;;;;;18.06;57.84;100589.00;2087432;28;36810;-69
2022/06/24 02:31:39;;;;;;;8.10;2.90;;;;;;;18.04;57.70;100586.41;2095669;28;28845;-67
2022/06/24 02:32:40;;;;;;;4.45;2.95;;;;;;;18.01;58.08;100588.41;2095899;28;27486;-69
2022/06/24 02:33:47;;;;;;;7.13;3.33;;;;;;;18.01;57.81;100591.13;2096384;28;23639;-69
2022/06/24 02:34:48;;;;;;;3.83;2.60;;;;;;;17.99;57.79;100590.34;2096646;28;20037;-69
2022/06/24 02:35:52;;;;;;;4.90;2.72;;;;;;;17.97;58.31;100593.16;2095779;28;20852;-69
2022/06/24 02:36:55;;;;;;;5.32;2.65;;;;;;;17.98;57.65;100586.78;2096885;28;20098;-69
2022/06/24 02:37:57;;;;;;;5.05;2.72;;;;;;;17.93;58.45;100589.75;2096499;28;21322;-69
2022/06/24 02:38:59;;;;;;;5.95;2.83;;;;;;;17.95;58.19;100589.66;2096640;28;26192;-69
2022/06/24 02:40:45;;;;;;;5.20;3.22;;;;;;;17.93;58.09;100584.31;2096201;28;27310;-69
2022/06/24 02:41:22;;;;;;;6.10;2.83;;;;;;;17.92;58.08;100582.56;2096743;28;21653;-69
2022/06/24 02:42:24;;;;;;;4.93;2.75;;;;;;;17.92;58.14;100577.16;2096159;28;28985;-69
2022/06/24 02:43:35;;;;;;;4.82;3.00;;;;;;;17.91;57.72;100582.69;2096050;28;27025;-69
2022/06/24 02:44:37;;;;;;;4.90;2.70;;;;;;;17.92;58.13;100577.16;2096590;28;22271;-70
2022/06/24 02:45:45;;;;;;;3.58;2.80;;;;;;;17.91;58.66;100586.25;2096279;28;27230;-68
2022/06/24 02:46:47;;;;;;;5.75;2.80;;;;;;;17.90;58.28;100578.22;2095179;28;32816;-69
2022/06/24 02:47:52;;;;;;;5.68;3.10;;;;;;;17.88;58.38;100567.47;2096214;28;20025;-69
2022/06/24 02:48:54;;;;;;;3.20;2.55;;;;;;;17.88;58.77;100575.59;2096030;28;27889;-69
2022/06/24 02:49:58;;;;;;;4.35;3.08;;;;;;;17.84;58.52;100563.19;2096624;28;21764;-69
2022/06/24 02:51:03;;;;;;;5.30;3.05;;;;;;;17.82;58.26;100564.22;2096028;28;20735;-70
2022/06/24 02:52:09;;;;;;;4.65;2.83;;;;;;;17.84;58.70;100563.19;2096346;28;37054;-69
2022/06/24 02:53:12;;;;;;;5.53;2.70;;;;;;;17.85;58.48;100550.50;2096427;28;24391;-69
2022/06/24 02:54:14;;;;;;;5.03;2.63;;;;;;;17.85;58.25;100561.34;2096935;28;20041;-69
2022/06/24 02:55:16;;;;;;;3.90;2.78;;;;;;;17.83;58.29;100547.88;2095943;28;28123;-69
2022/06/24 02:56:20;;;;;;;4.43;2.85;;;;;;;17.82;58.79;100554.28;2096706;28;26209;-70
2022/06/24 02:57:23;;;;;;;5.38;2.90;;;;;;;17.83;58.20;100553.28;2095485;28;20045;-69
2022/06/24 02:58:25;;;;;;;4.70;2.80;;;;;;;17.82;58.74;100543.44;2096317;28;22330;-69
2022/06/24 02:59:27;;;;;;;6.15;2.90;;;;;;;17.80;58.94;100548.09;2095093;28;20166;-69
2022/06/24 03:00:29;;;;;;;3.80;2.70;;;;;;;17.82;58.45;100554.28;2095124;28;39069;-70
2022/06/24 03:01:31;;;;;;;6.32;3.40;;;;;;;17.83;58.25;100541.59;2095950;28;20783;-70
2022/06/24 03:02:33;;;;;;;4.25;2.70;;;;;;;17.81;58.63;100547.09;2096731;28;20037;-69
2022/06/24 03:03:37;;;;;;;5.70;2.85;;;;;;;17.81;58.50;100555.22;2095779;28;38101;-70
2022/06/24 03:04:41;;;;;;;5.60;2.85;;;;;;;17.83;58.44;100544.31;2096461;28;26355;-70
2022/06/24 03:05:46;;;;;;;6.88;3.22;;;;;;;17.83;58.18;100542.47;2095284;28;23141;-70
2022/06/24 03:06:48;;;;;;;5.07;2.60;;;;;;;17.82;58.66;100542.53;2096196;28;27482;-70
2022/06/24 03:07:51;;;;;;;4.60;3.08;;;;;;;17.82;58.45;100543.44;2096363;28;20912;-70
2022/06/24 03:08:52;;;;;;;4.63;3.13;;;;;;;17.83;58.45;100542.47;2095241;28;38458;-70
2022/06/24 03:09:54;;;;;;;7.00;2.90;;;;;;;17.83;58.67;100537.03;2095633;28;20041;-69
2022/06/24 03:10:57;;;;;;;4.32;2.90;;;;;;;17.82;58.39;100538.03;2096388;28;21374;-70
2022/06/24 03:11:58;;;;;;;4.25;3.15;;;;;;;17.85;58.03;100529.72;2095816;28;20122;-70
2022/06/24 03:13:01;;;;;;;4.78;3.20;;;;;;;17.83;58.53;100531.63;2095607;28;34790;-70
2022/06/24 03:14:05;;;;;;;3.28;2.60;;;;;;;17.82;58.28;100531.72;2095524;28;22202;-69
2022/06/24 03:15:11;;;;;;;3.78;2.72;;;;;;;17.82;58.58;100531.72;2095322;28;20037;-70
2022/06/24 03:16:16;;;;;;;3.05;2.75;;;;;;;17.81;58.71;100530.00;2094244;28;20033;-70
2022/06/24 03:17:17;;;;;;;6.03;2.90;;;;;;;17.80;59.00;100526.41;2095414;28;26704;-70
2022/06/24 03:18:23;;;;;;;3.40;2.60;;;;;;;17.79;58.86;100527.38;2096316;28;32633;-70
2022/06/24 03:19:25;;;;;;;5.28;3.17;;;;;;;17.81;59.04;100516.44;2095568;28;21872;-70
2022/06/24 03:20:29;;;;;;;4.72;3.22;;;;;;;17.81;58.89;100525.44;2094560;28;30748;-69
2022/06/24 03:21:31;;;;;;;6.25;3.08;;;;;;;17.79;59.05;100521.09;2096322;28;20134;-70
2022/06/24 03:22:33;;;;;;;4.03;2.78;;;;;;;17.78;58.91;100522.91;2095940;28;20668;-70
2022/06/24 03:23:40;;;;;;;4.43;2.70;;;;;;;17.79;58.98;100516.53;2095935;28;32748;-70
2022/06/24 03:24:41;;;;;;;3.67;3.05;;;;;;;17.80;59.00;100515.59;2095004;28;26109;-70
2022/06/24 03:25:43;;;;;;;4.80;3.30;;;;;;;17.82;58.88;100518.19;2096671;28;20029;-70
2022/06/24 03:26:45;;;;;;;4.00;3.22;;;;;;;17.80;59.00;100518.28;2095570;28;31578;-69
2022/06/24 03:27:47;;;;;;;4.70;2.70;;;;;;;17.81;58.28;100514.59;2096608;28;20095;-69
2022/06/24 03:29:14;;;;;;;3.85;3.00;;;;;;;17.86;58.48;100517.09;2099716;28;23730;-70
2022/06/24 03:30:16;;;;;;;3.90;2.90;;;;;;;17.91;58.21;100512.25;2079052;28;35404;-71
2022/06/24 03:31:18;;;;;;;4.72;3.08;;;;;;;17.95;58.06;100515.66;2078926;28;27460;-71
2022/06/24 03:32:20;;;;;;;5.63;2.75;;;;;;;17.97;58.26;100511.88;2079321;28;25465;-71
2022/06/24 03:33:22;;;;;;;4.63;3.15;;;;;;;17.97;58.49;100514.59;2085956;28;29726;-71
2022/06/24 03:34:30;;;;;;;5.18;2.80;;;;;;;17.98;58.32;100510.94;2079621;28;20038;-71
2022/06/24 03:35:32;;;;;;;3.10;2.80;;;;;;;17.99;58.27;100509.09;2080050;28;20046;-71
2022/06/24 03:36:34;;;;;;;5.18;2.83;;;;;;;17.98;58.34;100510.94;2079893;28;20132;-71
2022/06/24 03:37:36;;;;;;;6.75;3.05;;;;;;;17.96;58.43;100510.13;2080013;28;20139;-71
2022/06/24 03:38:38;;;;;;;6.88;3.13;;;;;;;17.98;58.38;100505.50;2080039;28;20064;-71
2022/06/24 03:39:45;;;;;;;5.63;2.72;;;;;;;17.99;57.95;100512.66;2080095;28;20911;-71
2022/06/24 03:40:50;;;;;;;3.35;2.63;;;;;;;18.00;58.32;100516.22;2079551;28;20049;-71
2022/06/24 03:41:51;;;;;;;5.22;3.05;;;;;;;17.99;58.07;100504.53;2080402;28;20976;-71
2022/06/24 03:42:53;;;;;;;6.78;3.17;;;;;;;18.00;58.22;100502.69;2079873;28;20046;-71
2022/06/24 03:43:58;;;;;;;5.53;2.92;;;;;;;17.99;58.08;100498.25;2080154;28;20038;-63
2022/06/24 03:44:59;;;;;;;6.25;2.88;;;;;;;18.02;58.14;100492.66;2087112;28;27417;-71
2022/06/24 03:46:02;;;;;;;4.35;2.80;;;;;;;18.02;58.28;100507.06;2086260;28;37367;-71
2022/06/24 03:47:05;;;;;;;6.97;3.17;;;;;;;18.05;58.09;100508.69;2087320;28;20788;-71
2022/06/24 03:48:12;;;;;;;3.45;2.80;;;;;;;18.05;57.67;100493.34;2086364;28;29720;-71
2022/06/24 03:49:15;;;;;;;4.88;3.03;;;;;;;18.07;57.93;100499.53;2079892;28;20038;-71
2022/06/24 03:50:17;;;;;;;6.03;2.90;;;;;;;18.06;58.06;100492.34;2079633;28;21504;-71
2022/06/24 03:51:20;;;;;;;3.20;2.60;;;;;;;18.07;57.78;100494.09;2079402;28;20041;-71
2022/06/24 03:52:22;;;;;;;4.80;3.00;;;;;;;18.09;58.03;100485.88;2080063;28;20038;-71
2022/06/24 03:53:24;;;;;;;5.30;2.78;;;;;;;18.09;57.33;100486.75;2079209;28;28551;-71
2022/06/24 03:54:28;;;;;;;4.47;3.00;;;;;;;18.12;57.61;100496.50;2079849;28;21828;-71
2022/06/24 03:55:33;;;;;;;5.13;2.72;;;;;;;18.12;57.86;100491.09;2079617;28;20963;-71
2022/06/24 03:56:34;;;;;;;4.28;2.58;;;;;;;18.15;57.81;100490.06;2079247;28;31371;-71
2022/06/24 03:57:37;;;;;;;4.25;2.75;;;;;;;18.16;57.60;100486.34;2080643;28;20038;-71
2022/06/24 03:58:41;;;;;;;3.95;3.15;;;;;;;18.19;57.29;100489.75;2088858;28;20180;-71
2022/06/24 03:59:43;;;;;;;4.60;2.47;;;;;;;18.28;57.25;100475.63;2087813;28;33137;-70
2022/06/24 04:00:46;;;;;;;6.82;3.20;;;;;;;18.32;57.02;100481.72;2083546;28;20156;-70
2022/06/24 04:01:48;;;;;;;5.22;2.70;;;;;;;18.39;57.13;100484.94;2080605;28;20049;-70
2022/06/24 04:02:50;;;;;;;5.22;2.72;;;;;;;18.44;56.67;100480.09;2081179;28;20046;-71
2022/06/24 04:03:52;;;;;;;5.93;3.03;;;;;;;18.59;56.54;100481.84;2081015;28;20115;-70
2022/06/24 04:04:56;;;;;;;4.00;2.75;;;;;;;18.77;55.55;100487.91;2081179;28;23509;-70
2022/06/24 04:05:58;;;;;;;5.05;2.78;;;;;;;18.88;55.20;100482.69;2080860;28;20942;-70
2022/06/24 04:07:00;;;;;;;3.30;2.55;;;;;;;18.97;55.25;100481.22;2081334;28;22421;-70
2022/06/24 04:08:02;;;;;;;5.55;2.85;;;;;;;19.04;54.49;100482.56;2081280;28;20046;-70
2022/06/24 04:09:04;;;;;;;5.03;2.72;;;;;;;18.98;55.18;100482.09;2081097;28;25145;-71
2022/06/24 04:10:10;;;;;;;3.25;2.70;;;;;;;18.94;54.72;100492.28;2080528;28;24562;-70
2022/06/24 04:11:17;;;;;;;4.78;2.63;;;;;;;18.96;54.89;100503.03;2081380;28;20034;-70
2022/06/24 04:12:19;;;;;;;3.95;2.30;;;;;;;18.88;54.87;100511.69;2071754;28;23267;-70
2022/06/24 04:13:20;;;;;;;3.38;2.53;;;;;;;18.85;54.83;100522.72;2072461;28;29976;-71
2022/06/24 04:15:49;;;;;;;2.80;2.45;;;;;;;18.80;55.74;100524.81;2080577;28;27810;-71
2022/06/24 04:16:51;;;;;;;4.22;2.47;;;;;;;18.74;55.83;100512.53;2081297;28;21305;-71
2022/06/24 04:17:55;;;;;;;5.95;2.85;;;;;;;18.74;55.84;100503.53;2080706;28;20739;-70
2022/06/24 04:19:01;;;;;;;4.22;2.42;;;;;;;18.70;56.06;100502.84;2080370;28;27139;-71
2022/06/24 04:20:05;;;;;;;5.57;2.30;;;;;;;18.73;56.08;100510.75;2080797;28;20239;-70
2022/06/24 04:21:16;;;;;;;3.42;2.45;;;;;;;18.75;55.67;100510.66;2079850;28;24116;-71
2022/06/24 04:22:17;;;;;;;3.72;2.50;;;;;;;18.69;56.10;100510.09;2080313;28;24929;-71
2022/06/24 04:23:19;;;;;;;3.22;2.88;;;;;;;18.66;56.13;100499.47;2080530;28;20082;-71
2022/06/24 04:24:21;;;;;;;5.20;2.88;;;;;;;18.65;56.29;100504.97;2080785;28;22970;-71
2022/06/24 04:25:25;;;;;;;4.10;2.17;;;;;;;18.65;56.45;100503.13;2080662;28;30958;-71
2022/06/24 04:26:27;;;;;;;3.22;2.35;;;;;;;18.64;56.42;100503.22;2080591;28;21248;-70
2022/06/24 04:27:28;;;;;;;3.20;2.28;;;;;;;18.67;56.11;100503.91;2081650;28;20788;-71
2022/06/24 04:28:35;;;;;;;3.55;2.13;;;;;;;18.72;55.95;100494.59;2088562;28;20029;-71
2022/06/24 04:29:37;;;;;;;2.58;2.38;;;;;;;18.94;55.61;100494.97;2086667;28;24227;-71
2022/06/24 04:30:44;;;;;;;2.20;2.00;;;;;;;19.46;53.84;100490.66;2081907;28;20172;-71
2022/06/24 04:31:45;;;;;;;3.03;2.50;;;;;;;20.00;52.87;100496.03;2080702;28;21888;-71
2022/06/24 04:32:47;;;;;;;4.55;2.28;;;;;;;20.55;50.46;100491.25;2088103;28;21019;-70
2022/06/24 04:33:51;;;;;;;3.90;2.38;;;;;;;21.03;49.15;100484.22;2088390;28;20045;-71
2022/06/24 04:34:56;;;;;;;3.55;2.30;;;;;;;21.59;48.01;100476.38;2087895;28;26547;-70
2022/06/24 04:35:58;;;;;;;6.03;2.10;;;;;;;22.02;46.63;100475.78;2087109;28;24714;-70
2022/06/24 04:36:59;;;;;;;2.88;2.42;;;;;;;22.16;45.94;100471.09;2080365;28;22001;-70
2022/06/24 04:38:02;;;;;;;2.40;2.17;;;;;;;22.63;44.92;100475.50;2080666;28;27253;-70
2022/06/24 04:39:06;;;;;;;3.47;2.20;;;;;;;22.87;44.05;100474.47;2080193;28;21014;-70
2022/06/24 04:40:15;;;;;;;2.88;1.95;;;;;;;22.72;44.42;100462.97;2079788;28;27748;-71
2022/06/24 04:41:17;;;;;;;2.83;2.00;;;;;;;22.11;45.62;100472.31;2080993;28;20543;-71
2022/06/24 04:42:19;;;;;;;3.40;1.92;;;;;;;22.29;44.84;100474.63;2088325;28;30464;-71
2022/06/24 04:43:20;;;;;;;3.55;2.03;;;;;;;22.42;45.04;100475.38;2087618;28;28097;-71
2022/06/24 04:44:22;;;;;;;3.15;2.15;;;;;;;22.42;44.79;100469.91;2080595;28;21673;-71
2022/06/24 04:45:24;;;;;;;2.65;1.80;;;;;;;22.26;44.84;100469.38;2080592;28;25339;-71
2022/06/24 04:46:26;;;;;;;3.53;1.95;;;;;;;22.26;45.33;100472.09;2081119;28;20038;-70
2022/06/24 04:47:28;;;;;;;3.72;1.80;;;;;;;22.12;45.73;100471.31;2087436;28;34812;-71
2022/06/24 04:48:31;;;;;;;3.28;2.35;;;;;;;21.86;45.64;100467.06;2088590;28;20087;-71
2022/06/24 04:49:37;;;;;;;3.17;1.75;;;;;;;21.92;46.11;100472.03;2088337;28;20933;-71
2022/06/24 04:50:39;;;;;;;2.70;1.77;;;;;;;21.56;46.20;100453.97;2080227;28;20171;-71
2022/06/24 04:51:46;;;;;;;3.88;2.33;;;;;;;21.39;47.15;100457.94;2079804;28;20042;-71
2022/06/24 04:52:48;;;;;;;5.35;2.17;;;;;;;21.22;47.93;100467.38;2080502;28;24778;-71
2022/06/24 04:53:50;;;;;;;2.20;1.88;;;;;;;21.15;47.25;100464.25;2080706;28;20139;-71
2022/06/24 04:54:51;;;;;;;2.53;1.73;;;;;;;21.11;47.51;100465.47;2080476;28;23308;-71
2022/06/24 04:55:53;;;;;;;4.10;2.22;;;;;;;20.85;48.81;100465.53;2080935;28;20042;-71
2022/06/24 04:56:55;;;;;;;5.95;2.38;;;;;;;20.97;48.53;100469.22;2087607;28;23709;-71
2022/06/24 04:57:59;;;;;;;2.45;2.00;;;;;;;21.17;48.17;100465.00;2087636;28;25233;-71
2022/06/24 04:59:01;;;;;;;5.18;2.00;;;;;;;21.24;47.31;100460.81;2088377;28;20045;-71
2022/06/24 05:00:05;;;;;;;4.07;2.00;;;;;;;21.44;47.48;100461.16;2087646;28;24965;-71
2022/06/24 05:01:07;;;;;;;3.47;1.60;;;;;;;21.51;46.85;100460.63;2087840;28;31977;-70
2022/06/24 05:02:13;;;;;;;3.35;2.00;;;;;;;21.66;46.40;100461.31;2088152;28;20041;-71
2022/06/24 05:03:15;;;;;;;4.43;2.00;;;;;;;22.00;45.73;100464.13;2087608;28;24322;-71